NVY845 BIIS-BGBW
Flight info
| Callsign | NVY845 |
|---|---|
| Flight time | N/A |
| Altitude | 28000 |
| Route | 64N031W 63N038W |
| Aircraft | P46T/L-SBDGRWY/SB1 |
Departure
| Time | N/A |
|---|---|
| Airport | Ísafjörður Airport (BIIS) |
Arrival
| Time | 2026-04-27 19:12 |
|---|---|
| Airport | Narsarsuaq Airport (BGBW) |
| Time | Latitude | Longitude | Altitude | Speed | Heading |
|---|---|---|---|---|---|
| 2026-04-27 16:49 | 65.52216 | -28.32583 | 27493 ft | 212 kts | 232° |
| 2026-04-27 16:50 | 65.51671 | -28.35890 | 27490 ft | 212 kts | 232° |
| 2026-04-27 16:50 | 65.51127 | -28.39195 | 27490 ft | 212 kts | 232° |
| 2026-04-27 16:50 | 65.50581 | -28.42503 | 27489 ft | 212 kts | 232° |
| 2026-04-27 16:50 | 65.50035 | -28.45804 | 27489 ft | 212 kts | 232° |
| 2026-04-27 16:51 | 65.49488 | -28.49105 | 27486 ft | 212 kts | 232° |
| 2026-04-27 16:51 | 65.48941 | -28.52403 | 27487 ft | 212 kts | 232° |
| 2026-04-27 16:51 | 65.48393 | -28.55698 | 27486 ft | 212 kts | 231° |
| 2026-04-27 16:51 | 65.47845 | -28.58991 | 27487 ft | 212 kts | 231° |
| 2026-04-27 16:52 | 65.47303 | -28.62241 | 27486 ft | 212 kts | 231° |
| 2026-04-27 16:52 | 65.46753 | -28.65528 | 27467 ft | 212 kts | 231° |
| 2026-04-27 16:52 | 65.46203 | -28.68814 | 27468 ft | 212 kts | 231° |
| 2026-04-27 16:52 | 65.45652 | -28.72103 | 27468 ft | 212 kts | 231° |
| 2026-04-27 16:53 | 65.45100 | -28.75389 | 27466 ft | 212 kts | 231° |
| 2026-04-27 16:53 | 65.44547 | -28.78674 | 27543 ft | 212 kts | 231° |
| 2026-04-27 16:53 | 65.43986 | -28.81986 | 27467 ft | 215 kts | 231° |
| 2026-04-27 16:53 | 65.43427 | -28.85311 | 27467 ft | 215 kts | 231° |
| 2026-04-27 16:54 | 65.42866 | -28.88638 | 27465 ft | 215 kts | 231° |
| 2026-04-27 16:54 | 65.42304 | -28.91956 | 27464 ft | 214 kts | 231° |
| 2026-04-27 16:54 | 65.41748 | -28.95225 | 27444 ft | 214 kts | 231° |
| 2026-04-27 16:54 | 65.41185 | -28.98538 | 27442 ft | 214 kts | 231° |
| 2026-04-27 16:55 | 65.40622 | -29.01848 | 27442 ft | 214 kts | 231° |
| 2026-04-27 16:55 | 65.40056 | -29.05164 | 27443 ft | 214 kts | 231° |
| 2026-04-27 16:55 | 65.39490 | -29.08475 | 27444 ft | 215 kts | 231° |
| 2026-04-27 16:55 | 65.38923 | -29.11788 | 27442 ft | 215 kts | 231° |
| 2026-04-27 16:56 | 65.38355 | -29.15103 | 27443 ft | 215 kts | 231° |
| 2026-04-27 16:56 | 65.37786 | -29.18414 | 27438 ft | 215 kts | 231° |
| 2026-04-27 16:56 | 65.37216 | -29.21731 | 27440 ft | 215 kts | 231° |
| 2026-04-27 16:56 | 65.36651 | -29.25008 | 27426 ft | 215 kts | 231° |
| 2026-04-27 16:57 | 65.36078 | -29.28326 | 27426 ft | 216 kts | 231° |
| 2026-04-27 16:57 | 65.35505 | -29.31642 | 27431 ft | 216 kts | 231° |
| 2026-04-27 16:57 | 65.34929 | -29.34964 | 27432 ft | 216 kts | 231° |
| 2026-04-27 16:57 | 65.34354 | -29.38281 | 27431 ft | 216 kts | 231° |
| 2026-04-27 16:58 | 65.33777 | -29.41599 | 27431 ft | 216 kts | 231° |
| 2026-04-27 16:58 | 65.33200 | -29.44912 | 27431 ft | 216 kts | 230° |
| 2026-04-27 16:58 | 65.32624 | -29.48219 | 27431 ft | 216 kts | 230° |
| 2026-04-27 16:58 | 65.32045 | -29.51531 | 27431 ft | 216 kts | 230° |
| 2026-04-27 16:59 | 65.31474 | -29.54797 | 27497 ft | 215 kts | 230° |
| 2026-04-27 16:59 | 65.30888 | -29.58124 | 27411 ft | 219 kts | 231° |
| 2026-04-27 16:59 | 65.30301 | -29.61478 | 27413 ft | 218 kts | 231° |
| 2026-04-27 16:59 | 65.29716 | -29.64817 | 27414 ft | 218 kts | 231° |
| 2026-04-27 17:00 | 65.28930 | -29.69270 | 27411 ft | 217 kts | 231° |
| 2026-04-27 17:00 | 65.28153 | -29.73667 | 27411 ft | 217 kts | 231° |
| 2026-04-27 17:00 | 65.27566 | -29.76985 | 27410 ft | 217 kts | 231° |
| 2026-04-27 17:01 | 65.26979 | -29.80295 | 27411 ft | 217 kts | 231° |
| 2026-04-27 17:01 | 65.26391 | -29.83607 | 27411 ft | 216 kts | 231° |
| 2026-04-27 17:01 | 65.25612 | -29.87985 | 27399 ft | 216 kts | 231° |
| 2026-04-27 17:01 | 65.25023 | -29.91289 | 27399 ft | 216 kts | 231° |
| 2026-04-27 17:02 | 65.24433 | -29.94593 | 27401 ft | 216 kts | 231° |
| 2026-04-27 17:02 | 65.24043 | -29.96777 | 27401 ft | 216 kts | 231° |
| 2026-04-27 17:02 | 65.23452 | -30.00076 | 27401 ft | 216 kts | 231° |
| 2026-04-27 17:02 | 65.22860 | -30.03378 | 27401 ft | 216 kts | 231° |
| 2026-04-27 17:03 | 65.22268 | -30.06672 | 27402 ft | 216 kts | 231° |
| 2026-04-27 17:03 | 65.21675 | -30.09968 | 27402 ft | 216 kts | 231° |
| 2026-04-27 17:03 | 65.20889 | -30.14329 | 27402 ft | 216 kts | 231° |
| 2026-04-27 17:03 | 65.20294 | -30.17619 | 27397 ft | 216 kts | 231° |
| 2026-04-27 17:04 | 65.19891 | -30.19847 | 27396 ft | 216 kts | 231° |
| 2026-04-27 17:04 | 65.19303 | -30.23095 | 27396 ft | 216 kts | 231° |
| 2026-04-27 17:04 | 65.18706 | -30.26383 | 27396 ft | 216 kts | 231° |
| 2026-04-27 17:04 | 65.18109 | -30.29668 | 27396 ft | 216 kts | 231° |
| 2026-04-27 17:05 | 65.17504 | -30.32979 | 27395 ft | 219 kts | 232° |
| 2026-04-27 17:05 | 65.16897 | -30.36313 | 27396 ft | 219 kts | 232° |
| 2026-04-27 17:05 | 65.16291 | -30.39641 | 27396 ft | 219 kts | 232° |
| 2026-04-27 17:05 | 65.15681 | -30.42971 | 27396 ft | 219 kts | 232° |
| 2026-04-27 17:06 | 65.15071 | -30.46299 | 27386 ft | 220 kts | 232° |
| 2026-04-27 17:06 | 65.14461 | -30.49623 | 27386 ft | 220 kts | 232° |
| 2026-04-27 17:06 | 65.13858 | -30.52902 | 27386 ft | 220 kts | 232° |
| 2026-04-27 17:06 | 65.13246 | -30.56225 | 27386 ft | 220 kts | 232° |
| 2026-04-27 17:07 | 65.12633 | -30.59550 | 27384 ft | 220 kts | 232° |
| 2026-04-27 17:07 | 65.12019 | -30.62870 | 27384 ft | 220 kts | 232° |
| 2026-04-27 17:07 | 65.11404 | -30.66191 | 27384 ft | 220 kts | 232° |
| 2026-04-27 17:07 | 65.10789 | -30.69512 | 27384 ft | 220 kts | 232° |
| 2026-04-27 17:08 | 65.10172 | -30.72834 | 27383 ft | 220 kts | 232° |
| 2026-04-27 17:08 | 65.09554 | -30.76153 | 27378 ft | 220 kts | 232° |
| 2026-04-27 17:08 | 65.08945 | -30.79421 | 27378 ft | 220 kts | 232° |
| 2026-04-27 17:08 | 65.08326 | -30.82738 | 27378 ft | 220 kts | 232° |
| 2026-04-27 17:09 | 65.07707 | -30.86050 | 27378 ft | 220 kts | 232° |
| 2026-04-27 17:09 | 65.07087 | -30.89362 | 27378 ft | 220 kts | 232° |
| 2026-04-27 17:09 | 65.06466 | -30.92673 | 27378 ft | 220 kts | 232° |
| 2026-04-27 17:09 | 65.05845 | -30.95976 | 27378 ft | 220 kts | 232° |
| 2026-04-27 17:10 | 65.05223 | -30.99285 | 27373 ft | 220 kts | 232° |
| 2026-04-27 17:10 | 65.04607 | -31.02550 | 27372 ft | 220 kts | 232° |
| 2026-04-27 17:10 | 65.03981 | -31.05863 | 27384 ft | 222 kts | 232° |
| 2026-04-27 17:10 | 65.03350 | -31.09195 | 27372 ft | 222 kts | 232° |
| 2026-04-27 17:11 | 65.02720 | -31.12529 | 27369 ft | 222 kts | 232° |
| 2026-04-27 17:11 | 65.01460 | -31.19168 | 27368 ft | 221 kts | 232° |
| 2026-04-27 17:11 | 65.00828 | -31.22487 | 27364 ft | 221 kts | 231° |
| 2026-04-27 17:12 | 64.99565 | -31.29103 | 27370 ft | 221 kts | 231° |
| 2026-04-27 17:12 | 64.98941 | -31.32368 | 27366 ft | 221 kts | 231° |
| 2026-04-27 17:12 | 64.98308 | -31.35671 | 27354 ft | 221 kts | 231° |
| 2026-04-27 17:13 | 64.97674 | -31.38976 | 27361 ft | 221 kts | 231° |
| 2026-04-27 17:13 | 64.97040 | -31.42275 | 27361 ft | 221 kts | 231° |
| 2026-04-27 17:13 | 64.96404 | -31.45575 | 27362 ft | 221 kts | 231° |
| 2026-04-27 17:13 | 64.95769 | -31.48870 | 27363 ft | 221 kts | 231° |
| 2026-04-27 17:14 | 64.95133 | -31.52162 | 27361 ft | 221 kts | 231° |
| 2026-04-27 17:14 | 64.94496 | -31.55457 | 27363 ft | 221 kts | 231° |
| 2026-04-27 17:14 | 64.93866 | -31.58704 | 27357 ft | 221 kts | 231° |
| 2026-04-27 17:14 | 64.93228 | -31.61992 | 27363 ft | 221 kts | 231° |
| 2026-04-27 17:15 | 64.92588 | -31.65284 | 27354 ft | 221 kts | 231° |
| 2026-04-27 17:15 | 64.91949 | -31.68565 | 27359 ft | 221 kts | 231° |
| 2026-04-27 17:15 | 64.91309 | -31.71850 | 27354 ft | 220 kts | 231° |
| 2026-04-27 17:15 | 64.90669 | -31.75123 | 27359 ft | 220 kts | 231° |
| 2026-04-27 17:16 | 64.90028 | -31.78401 | 27407 ft | 221 kts | 231° |
| 2026-04-27 17:16 | 64.89380 | -31.81701 | 27352 ft | 222 kts | 231° |
| 2026-04-27 17:16 | 64.88744 | -31.84951 | 27353 ft | 221 kts | 231° |
| 2026-04-27 17:16 | 64.88102 | -31.88218 | 27352 ft | 220 kts | 231° |
| 2026-04-27 17:17 | 64.87460 | -31.91477 | 27351 ft | 219 kts | 231° |
| 2026-04-27 17:17 | 64.86819 | -31.94728 | 27345 ft | 219 kts | 231° |
| 2026-04-27 17:17 | 64.86179 | -31.97965 | 27345 ft | 218 kts | 231° |
| 2026-04-27 17:18 | 64.84899 | -32.04430 | 27345 ft | 218 kts | 230° |
| 2026-04-27 17:18 | 64.84259 | -32.07653 | 27344 ft | 218 kts | 230° |
| 2026-04-27 17:18 | 64.83618 | -32.10880 | 27343 ft | 218 kts | 230° |
| 2026-04-27 17:18 | 64.82986 | -32.14051 | 27343 ft | 217 kts | 230° |
| 2026-04-27 17:19 | 64.82347 | -32.17261 | 27343 ft | 217 kts | 230° |
| 2026-04-27 17:19 | 64.81704 | -32.20476 | 27343 ft | 217 kts | 230° |
| 2026-04-27 17:19 | 64.81063 | -32.23681 | 27340 ft | 217 kts | 230° |
| 2026-04-27 17:19 | 64.80422 | -32.26885 | 27340 ft | 217 kts | 230° |
| 2026-04-27 17:20 | 64.79779 | -32.30086 | 27341 ft | 217 kts | 230° |
| 2026-04-27 17:20 | 64.79136 | -32.33286 | 27341 ft | 217 kts | 230° |
| 2026-04-27 17:20 | 64.78492 | -32.36485 | 27341 ft | 217 kts | 230° |
| 2026-04-27 17:20 | 64.77847 | -32.39686 | 27341 ft | 217 kts | 230° |
| 2026-04-27 17:21 | 64.77211 | -32.42836 | 27338 ft | 217 kts | 230° |
| 2026-04-27 17:21 | 64.76566 | -32.46026 | 27338 ft | 217 kts | 230° |
| 2026-04-27 17:21 | 64.75919 | -32.49221 | 27339 ft | 217 kts | 230° |
| 2026-04-27 17:21 | 64.75269 | -32.52420 | 27338 ft | 219 kts | 230° |
| 2026-04-27 17:22 | 64.74614 | -32.55649 | 27330 ft | 219 kts | 230° |
| 2026-04-27 17:22 | 64.73962 | -32.58863 | 27333 ft | 218 kts | 230° |
| 2026-04-27 17:22 | 64.73308 | -32.62069 | 27331 ft | 218 kts | 230° |
| 2026-04-27 17:22 | 64.72664 | -32.65225 | 27331 ft | 218 kts | 230° |
| 2026-04-27 17:23 | 64.72012 | -32.68415 | 27330 ft | 218 kts | 230° |
| 2026-04-27 17:23 | 64.71359 | -32.71605 | 27326 ft | 217 kts | 230° |
| 2026-04-27 17:23 | 64.70705 | -32.74796 | 27328 ft | 217 kts | 230° |
| 2026-04-27 17:23 | 64.70051 | -32.77977 | 27329 ft | 217 kts | 230° |
| 2026-04-27 17:24 | 64.69398 | -32.81151 | 27323 ft | 217 kts | 229° |
| 2026-04-27 17:24 | 64.68744 | -32.84330 | 27322 ft | 217 kts | 229° |
| 2026-04-27 17:24 | 64.68089 | -32.87504 | 27320 ft | 217 kts | 229° |
| 2026-04-27 17:24 | 64.67435 | -32.90670 | 27322 ft | 217 kts | 229° |
| 2026-04-27 17:25 | 64.66788 | -32.93797 | 27321 ft | 217 kts | 229° |
| 2026-04-27 17:25 | 64.66133 | -32.96957 | 27320 ft | 217 kts | 229° |
| 2026-04-27 17:25 | 64.65476 | -33.00125 | 27321 ft | 217 kts | 229° |
| 2026-04-27 17:25 | 64.64818 | -33.03288 | 27321 ft | 217 kts | 229° |
| 2026-04-27 17:26 | 64.64160 | -33.06449 | 27321 ft | 217 kts | 229° |
| 2026-04-27 17:26 | 64.63502 | -33.09608 | 27313 ft | 217 kts | 229° |
| 2026-04-27 17:26 | 64.62843 | -33.12768 | 27318 ft | 216 kts | 229° |
| 2026-04-27 17:26 | 64.62184 | -33.15918 | 27317 ft | 217 kts | 229° |
| 2026-04-27 17:27 | 64.61532 | -33.19032 | 27314 ft | 217 kts | 229° |
| 2026-04-27 17:27 | 64.60871 | -33.22183 | 27381 ft | 217 kts | 229° |
| 2026-04-27 17:27 | 64.60199 | -33.25371 | 27314 ft | 220 kts | 229° |
| 2026-04-27 17:27 | 64.59529 | -33.28567 | 27315 ft | 219 kts | 229° |
| 2026-04-27 17:28 | 64.58859 | -33.31751 | 27312 ft | 219 kts | 229° |
| 2026-04-27 17:28 | 64.58187 | -33.34935 | 27312 ft | 219 kts | 229° |
| 2026-04-27 17:28 | 64.56852 | -33.41247 | 27300 ft | 219 kts | 229° |
| 2026-04-27 17:29 | 64.56179 | -33.44423 | 27301 ft | 219 kts | 229° |
| 2026-04-27 17:29 | 64.55507 | -33.47590 | 27301 ft | 219 kts | 229° |
| 2026-04-27 17:29 | 64.54833 | -33.50758 | 27301 ft | 218 kts | 229° |
| 2026-04-27 17:29 | 64.54160 | -33.53921 | 27301 ft | 218 kts | 229° |
| 2026-04-27 17:30 | 64.53486 | -33.57082 | 27301 ft | 218 kts | 229° |
| 2026-04-27 17:30 | 64.52135 | -33.63402 | 27301 ft | 218 kts | 229° |
| 2026-04-27 17:30 | 64.51459 | -33.66557 | 27287 ft | 218 kts | 229° |
| 2026-04-27 17:31 | 64.50792 | -33.69667 | 27284 ft | 218 kts | 229° |
| 2026-04-27 17:31 | 64.50115 | -33.72821 | 27284 ft | 218 kts | 229° |
| 2026-04-27 17:31 | 64.49437 | -33.75970 | 27284 ft | 218 kts | 229° |
| 2026-04-27 17:31 | 64.48760 | -33.79116 | 27284 ft | 218 kts | 228° |
| 2026-04-27 17:32 | 64.48081 | -33.82263 | 27286 ft | 218 kts | 228° |
| 2026-04-27 17:32 | 64.46722 | -33.88546 | 27286 ft | 218 kts | 228° |
| 2026-04-27 17:32 | 64.46042 | -33.91680 | 27286 ft | 218 kts | 228° |
| 2026-04-27 17:33 | 64.45369 | -33.94780 | 27295 ft | 219 kts | 228° |
| 2026-04-27 17:33 | 64.44681 | -33.97943 | 27273 ft | 220 kts | 228° |
| 2026-04-27 17:33 | 64.43996 | -34.01098 | 27274 ft | 219 kts | 228° |
| 2026-04-27 17:33 | 64.43311 | -34.04240 | 27273 ft | 218 kts | 228° |
| 2026-04-27 17:34 | 64.42626 | -34.07376 | 27274 ft | 218 kts | 228° |
| 2026-04-27 17:34 | 64.41942 | -34.10503 | 27273 ft | 218 kts | 228° |
| 2026-04-27 17:34 | 64.41259 | -34.13624 | 27273 ft | 218 kts | 227° |
| 2026-04-27 17:34 | 64.40574 | -34.16743 | 27272 ft | 217 kts | 227° |
| 2026-04-27 17:35 | 64.39900 | -34.19814 | 27274 ft | 217 kts | 227° |
| 2026-04-27 17:35 | 64.39215 | -34.22927 | 27274 ft | 217 kts | 227° |
| 2026-04-27 17:35 | 64.38531 | -34.26035 | 27274 ft | 217 kts | 227° |
| 2026-04-27 17:35 | 64.37846 | -34.29141 | 27273 ft | 217 kts | 227° |
| 2026-04-27 17:36 | 64.37161 | -34.32240 | 27272 ft | 217 kts | 227° |
| 2026-04-27 17:36 | 64.36475 | -34.35340 | 27272 ft | 217 kts | 227° |
| 2026-04-27 17:36 | 64.35789 | -34.38436 | 27272 ft | 217 kts | 227° |
| 2026-04-27 17:36 | 64.35103 | -34.41530 | 27272 ft | 217 kts | 227° |
| 2026-04-27 17:37 | 64.34424 | -34.44583 | 27275 ft | 217 kts | 227° |
| 2026-04-27 17:37 | 64.33737 | -34.47674 | 27274 ft | 217 kts | 227° |
| 2026-04-27 17:37 | 64.33048 | -34.50763 | 27257 ft | 216 kts | 227° |
| 2026-04-27 17:37 | 64.32359 | -34.53849 | 27257 ft | 216 kts | 227° |
| 2026-04-27 17:38 | 64.31671 | -34.56931 | 27255 ft | 216 kts | 227° |
| 2026-04-27 17:38 | 64.30981 | -34.60012 | 27256 ft | 216 kts | 227° |
| 2026-04-27 17:38 | 64.30291 | -34.63090 | 27256 ft | 216 kts | 227° |
| 2026-04-27 17:38 | 64.29602 | -34.66164 | 27256 ft | 216 kts | 227° |
| 2026-04-27 17:39 | 64.28911 | -34.69236 | 27253 ft | 216 kts | 227° |
| 2026-04-27 17:39 | 64.28229 | -34.72267 | 27253 ft | 216 kts | 227° |
| 2026-04-27 17:39 | 64.27538 | -34.75333 | 27253 ft | 216 kts | 227° |
| 2026-04-27 17:39 | 64.26845 | -34.78402 | 27238 ft | 216 kts | 227° |
| 2026-04-27 17:40 | 64.26153 | -34.81462 | 27239 ft | 216 kts | 227° |
| 2026-04-27 17:40 | 64.25460 | -34.84524 | 27239 ft | 216 kts | 227° |
| 2026-04-27 17:40 | 64.24767 | -34.87582 | 27240 ft | 216 kts | 227° |
| 2026-04-27 17:40 | 64.24072 | -34.90641 | 27240 ft | 216 kts | 227° |
| 2026-04-27 17:41 | 64.23377 | -34.93697 | 27242 ft | 216 kts | 227° |
| 2026-04-27 17:41 | 64.22691 | -34.96713 | 27242 ft | 216 kts | 227° |
| 2026-04-27 17:41 | 64.21995 | -34.99767 | 27242 ft | 216 kts | 227° |
| 2026-04-27 17:41 | 64.21299 | -35.02813 | 27242 ft | 216 kts | 227° |
| 2026-04-27 17:42 | 64.20602 | -35.05863 | 27226 ft | 215 kts | 227° |
| 2026-04-27 17:42 | 64.19905 | -35.08906 | 27227 ft | 215 kts | 227° |
| 2026-04-27 17:42 | 64.19207 | -35.11949 | 27227 ft | 215 kts | 227° |
| 2026-04-27 17:42 | 64.18509 | -35.14990 | 27227 ft | 215 kts | 227° |
| 2026-04-27 17:43 | 64.17810 | -35.18031 | 27225 ft | 216 kts | 227° |
| 2026-04-27 17:43 | 64.17110 | -35.21071 | 27227 ft | 216 kts | 227° |
| 2026-04-27 17:43 | 64.16419 | -35.24068 | 27226 ft | 216 kts | 227° |
| 2026-04-27 17:43 | 64.15719 | -35.27102 | 27226 ft | 215 kts | 227° |
| 2026-04-27 17:44 | 64.15017 | -35.30136 | 27227 ft | 215 kts | 227° |
| 2026-04-27 17:44 | 64.14307 | -35.33189 | 27216 ft | 219 kts | 227° |
| 2026-04-27 17:44 | 64.13595 | -35.36268 | 27217 ft | 219 kts | 227° |
| 2026-04-27 17:44 | 64.12882 | -35.39347 | 27218 ft | 218 kts | 227° |
| 2026-04-27 17:45 | 64.12169 | -35.42409 | 27217 ft | 218 kts | 227° |
| 2026-04-27 17:45 | 64.11456 | -35.45474 | 27217 ft | 218 kts | 227° |
| 2026-04-27 17:45 | 64.10742 | -35.48534 | 27217 ft | 218 kts | 227° |
| 2026-04-27 17:45 | 64.10037 | -35.51551 | 27217 ft | 218 kts | 227° |
| 2026-04-27 17:46 | 64.09324 | -35.54602 | 27218 ft | 218 kts | 227° |
| 2026-04-27 17:46 | 64.08609 | -35.57652 | 27212 ft | 218 kts | 227° |
| 2026-04-27 17:46 | 64.07895 | -35.60699 | 27211 ft | 218 kts | 227° |
| 2026-04-27 17:46 | 64.07180 | -35.63744 | 27211 ft | 217 kts | 227° |
| 2026-04-27 17:47 | 64.06464 | -35.66789 | 27211 ft | 217 kts | 226° |
| 2026-04-27 17:47 | 64.05991 | -35.68799 | 27212 ft | 217 kts | 226° |
| 2026-04-27 17:47 | 64.05031 | -35.72865 | 27214 ft | 218 kts | 227° |
| 2026-04-27 17:47 | 64.04320 | -35.75875 | 27213 ft | 219 kts | 226° |
| 2026-04-27 17:48 | 64.03596 | -35.78937 | 27213 ft | 220 kts | 227° |
| 2026-04-27 17:48 | 64.02871 | -35.82003 | 27215 ft | 220 kts | 227° |
| 2026-04-27 17:48 | 64.02142 | -35.85076 | 27203 ft | 220 kts | 227° |
| 2026-04-27 17:48 | 64.01416 | -35.88138 | 27202 ft | 219 kts | 226° |
| 2026-04-27 17:49 | 64.00691 | -35.91189 | 27202 ft | 218 kts | 226° |
| 2026-04-27 17:49 | 63.99966 | -35.94226 | 27201 ft | 218 kts | 226° |
| 2026-04-27 17:49 | 63.99241 | -35.97267 | 27200 ft | 218 kts | 226° |
| 2026-04-27 17:49 | 63.98511 | -36.00315 | 27211 ft | 221 kts | 226° |
| 2026-04-27 17:50 | 63.97784 | -36.03355 | 27206 ft | 221 kts | 227° |
| 2026-04-27 17:50 | 63.96315 | -36.09495 | 27204 ft | 220 kts | 227° |
| 2026-04-27 17:50 | 63.95581 | -36.12552 | 27194 ft | 220 kts | 226° |
| 2026-04-27 17:51 | 63.94847 | -36.15602 | 27194 ft | 220 kts | 226° |
| 2026-04-27 17:51 | 63.94113 | -36.18650 | 27197 ft | 220 kts | 226° |
| 2026-04-27 17:51 | 63.93380 | -36.21689 | 27194 ft | 219 kts | 226° |
| 2026-04-27 17:51 | 63.92645 | -36.24733 | 27194 ft | 219 kts | 226° |
| 2026-04-27 17:52 | 63.91920 | -36.27731 | 27194 ft | 219 kts | 226° |
| 2026-04-27 17:52 | 63.91185 | -36.30764 | 27194 ft | 219 kts | 226° |
| 2026-04-27 17:52 | 63.90449 | -36.33799 | 27193 ft | 219 kts | 226° |
| 2026-04-27 17:52 | 63.89712 | -36.36833 | 27193 ft | 219 kts | 226° |
| 2026-04-27 17:53 | 63.88976 | -36.39860 | 27181 ft | 220 kts | 226° |
| 2026-04-27 17:53 | 63.88236 | -36.42899 | 27184 ft | 220 kts | 226° |
| 2026-04-27 17:53 | 63.87498 | -36.45925 | 27183 ft | 220 kts | 226° |
| 2026-04-27 17:53 | 63.86758 | -36.48957 | 27187 ft | 219 kts | 226° |
| 2026-04-27 17:54 | 63.86019 | -36.51980 | 27188 ft | 219 kts | 226° |
| 2026-04-27 17:54 | 63.85289 | -36.54959 | 27187 ft | 219 kts | 226° |
| 2026-04-27 17:54 | 63.84549 | -36.57981 | 27185 ft | 219 kts | 226° |
| 2026-04-27 17:54 | 63.83809 | -36.60991 | 27183 ft | 219 kts | 226° |
| 2026-04-27 17:55 | 63.83067 | -36.64011 | 27182 ft | 219 kts | 226° |
| 2026-04-27 17:55 | 63.82317 | -36.67045 | 27177 ft | 223 kts | 227° |
| 2026-04-27 17:55 | 63.81560 | -36.70117 | 27171 ft | 223 kts | 227° |
| 2026-04-27 17:55 | 63.80804 | -36.73189 | 27171 ft | 223 kts | 227° |
| 2026-04-27 17:56 | 63.80047 | -36.76252 | 27174 ft | 223 kts | 227° |
| 2026-04-27 17:56 | 63.79299 | -36.79273 | 27174 ft | 223 kts | 227° |
| 2026-04-27 17:56 | 63.78540 | -36.82330 | 27175 ft | 223 kts | 227° |
| 2026-04-27 17:56 | 63.77782 | -36.85386 | 27175 ft | 223 kts | 227° |
| 2026-04-27 17:57 | 63.77021 | -36.88445 | 27175 ft | 223 kts | 227° |
| 2026-04-27 17:57 | 63.76261 | -36.91497 | 27167 ft | 223 kts | 227° |
| 2026-04-27 17:57 | 63.75501 | -36.94548 | 27167 ft | 223 kts | 227° |
| 2026-04-27 17:57 | 63.74740 | -36.97593 | 27167 ft | 223 kts | 227° |
| 2026-04-27 17:58 | 63.73978 | -37.00642 | 27162 ft | 223 kts | 227° |
| 2026-04-27 17:58 | 63.73225 | -37.03650 | 27164 ft | 223 kts | 227° |
| 2026-04-27 17:58 | 63.72463 | -37.06692 | 27164 ft | 223 kts | 227° |
| 2026-04-27 17:58 | 63.71699 | -37.09734 | 27164 ft | 223 kts | 227° |
| 2026-04-27 17:59 | 63.70935 | -37.12772 | 27164 ft | 223 kts | 227° |
| 2026-04-27 17:59 | 63.70171 | -37.15806 | 27164 ft | 223 kts | 227° |
| 2026-04-27 17:59 | 63.69406 | -37.18841 | 27153 ft | 223 kts | 227° |
| 2026-04-27 17:59 | 63.68641 | -37.21874 | 27153 ft | 223 kts | 227° |
| 2026-04-27 18:00 | 63.67874 | -37.24906 | 27151 ft | 223 kts | 227° |
| 2026-04-27 18:00 | 63.67118 | -37.27896 | 27151 ft | 223 kts | 227° |
| 2026-04-27 18:00 | 63.66351 | -37.30922 | 27228 ft | 223 kts | 227° |
| 2026-04-27 18:00 | 63.65572 | -37.33978 | 27154 ft | 226 kts | 228° |
| 2026-04-27 18:01 | 63.64792 | -37.37053 | 27155 ft | 226 kts | 228° |
| 2026-04-27 18:01 | 63.64013 | -37.40123 | 27155 ft | 226 kts | 228° |
| 2026-04-27 18:01 | 63.63232 | -37.43186 | 27155 ft | 226 kts | 228° |
| 2026-04-27 18:01 | 63.62451 | -37.46245 | 27140 ft | 226 kts | 228° |
| 2026-04-27 18:02 | 63.61669 | -37.49303 | 27134 ft | 226 kts | 228° |
| 2026-04-27 18:02 | 63.60896 | -37.52322 | 27133 ft | 225 kts | 228° |
| 2026-04-27 18:02 | 63.60115 | -37.55371 | 27134 ft | 225 kts | 227° |
| 2026-04-27 18:02 | 63.59351 | -37.58437 | 27128 ft | 225 kts | 230° |
| 2026-04-27 18:03 | 63.58570 | -37.61464 | 27131 ft | 223 kts | 227° |
| 2026-04-27 18:03 | 63.57777 | -37.64452 | 27131 ft | 223 kts | 227° |
| 2026-04-27 18:03 | 63.56999 | -37.67469 | 27131 ft | 223 kts | 228° |
| 2026-04-27 18:03 | 63.56225 | -37.70486 | 27117 ft | 223 kts | 228° |
| 2026-04-27 18:04 | 63.55447 | -37.73502 | 27116 ft | 223 kts | 228° |
| 2026-04-27 18:04 | 63.54670 | -37.76503 | 27116 ft | 223 kts | 228° |
| 2026-04-27 18:04 | 63.53899 | -37.79474 | 27121 ft | 225 kts | 228° |
| 2026-04-27 18:04 | 63.53109 | -37.82512 | 27117 ft | 227 kts | 228° |
| 2026-04-27 18:05 | 63.52316 | -37.85569 | 27118 ft | 227 kts | 228° |
| 2026-04-27 18:05 | 63.51518 | -37.88639 | 27118 ft | 228 kts | 228° |
| 2026-04-27 18:05 | 63.50721 | -37.91703 | 27119 ft | 228 kts | 228° |
| 2026-04-27 18:05 | 63.49921 | -37.94770 | 27119 ft | 228 kts | 228° |
| 2026-04-27 18:06 | 63.49113 | -37.97855 | 27108 ft | 231 kts | 230° |
| 2026-04-27 18:06 | 63.48301 | -38.00960 | 27112 ft | 231 kts | 230° |
| 2026-04-27 18:06 | 63.47489 | -38.04065 | 27109 ft | 231 kts | 230° |
| 2026-04-27 18:06 | 63.46686 | -38.07125 | 27113 ft | 232 kts | 230° |
| 2026-04-27 18:07 | 63.45869 | -38.10237 | 27112 ft | 232 kts | 230° |
| 2026-04-27 18:07 | 63.45048 | -38.13357 | 27109 ft | 233 kts | 230° |
| 2026-04-27 18:07 | 63.44227 | -38.16475 | 27111 ft | 233 kts | 230° |
| 2026-04-27 18:07 | 63.43408 | -38.19582 | 27107 ft | 232 kts | 230° |
| 2026-04-27 18:08 | 63.42588 | -38.22685 | 27084 ft | 232 kts | 230° |
| 2026-04-27 18:08 | 63.41769 | -38.25780 | 27085 ft | 231 kts | 230° |
| 2026-04-27 18:08 | 63.40952 | -38.28863 | 27086 ft | 231 kts | 230° |
| 2026-04-27 18:08 | 63.40134 | -38.31948 | 27085 ft | 231 kts | 230° |
| 2026-04-27 18:09 | 63.39326 | -38.34991 | 27090 ft | 231 kts | 230° |
| 2026-04-27 18:09 | 63.38507 | -38.38069 | 27090 ft | 231 kts | 230° |
| 2026-04-27 18:09 | 63.37687 | -38.41147 | 27093 ft | 231 kts | 230° |
| 2026-04-27 18:09 | 63.36867 | -38.44224 | 27091 ft | 231 kts | 229° |
| 2026-04-27 18:10 | 63.36047 | -38.47291 | 27077 ft | 230 kts | 229° |
| 2026-04-27 18:10 | 63.35229 | -38.50352 | 27075 ft | 230 kts | 229° |
| 2026-04-27 18:10 | 63.34412 | -38.53403 | 27070 ft | 229 kts | 229° |
| 2026-04-27 18:10 | 63.33608 | -38.56402 | 27066 ft | 228 kts | 229° |
| 2026-04-27 18:11 | 63.32793 | -38.59433 | 27116 ft | 228 kts | 230° |
| 2026-04-27 18:11 | 63.31972 | -38.62480 | 27072 ft | 230 kts | 231° |
| 2026-04-27 18:11 | 63.31148 | -38.65542 | 27071 ft | 231 kts | 231° |
| 2026-04-27 18:11 | 63.30323 | -38.68606 | 27071 ft | 231 kts | 231° |
| 2026-04-27 18:12 | 63.29495 | -38.71671 | 27073 ft | 231 kts | 231° |
| 2026-04-27 18:12 | 63.28665 | -38.74743 | 27054 ft | 232 kts | 231° |
| 2026-04-27 18:12 | 63.27833 | -38.77814 | 27056 ft | 232 kts | 231° |
| 2026-04-27 18:12 | 63.27010 | -38.80851 | 27055 ft | 233 kts | 231° |
| 2026-04-27 18:13 | 63.26172 | -38.83936 | 27058 ft | 233 kts | 231° |
| 2026-04-27 18:13 | 63.25331 | -38.87027 | 27057 ft | 234 kts | 231° |
| 2026-04-27 18:13 | 63.24489 | -38.90121 | 27055 ft | 235 kts | 231° |
| 2026-04-27 18:13 | 63.23642 | -38.93227 | 27058 ft | 235 kts | 231° |
| 2026-04-27 18:14 | 63.22794 | -38.96334 | 27057 ft | 236 kts | 231° |
| 2026-04-27 18:14 | 63.21942 | -38.99450 | 27045 ft | 236 kts | 231° |
| 2026-04-27 18:14 | 63.21090 | -39.02565 | 27045 ft | 237 kts | 231° |
| 2026-04-27 18:14 | 63.20245 | -39.05645 | 27046 ft | 237 kts | 231° |
| 2026-04-27 18:15 | 63.19386 | -39.08774 | 27045 ft | 238 kts | 231° |
| 2026-04-27 18:15 | 63.18523 | -39.11914 | 27046 ft | 239 kts | 231° |
| 2026-04-27 18:15 | 63.17657 | -39.15060 | 27045 ft | 240 kts | 231° |
| 2026-04-27 18:15 | 63.16788 | -39.18214 | 27044 ft | 240 kts | 231° |
| 2026-04-27 18:16 | 63.15917 | -39.21370 | 27043 ft | 241 kts | 231° |
| 2026-04-27 18:16 | 63.15038 | -39.24546 | 27030 ft | 243 kts | 233° |
| 2026-04-27 18:16 | 63.14158 | -39.27728 | 27029 ft | 243 kts | 233° |
| 2026-04-27 18:16 | 63.13276 | -39.30912 | 27040 ft | 243 kts | 233° |
| 2026-04-27 18:17 | 63.12404 | -39.34049 | 27047 ft | 243 kts | 233° |
| 2026-04-27 18:17 | 63.11522 | -39.37225 | 27046 ft | 243 kts | 233° |
| 2026-04-27 18:17 | 63.10638 | -39.40398 | 27046 ft | 243 kts | 233° |
| 2026-04-27 18:17 | 63.09753 | -39.43573 | 27041 ft | 243 kts | 233° |
| 2026-04-27 18:18 | 63.08868 | -39.46743 | 27034 ft | 243 kts | 233° |
| 2026-04-27 18:18 | 63.07980 | -39.49918 | 27034 ft | 243 kts | 233° |
| 2026-04-27 18:18 | 63.07095 | -39.53082 | 27032 ft | 243 kts | 233° |
| 2026-04-27 18:18 | 63.06205 | -39.56252 | 27025 ft | 243 kts | 233° |
| 2026-04-27 18:19 | 63.05317 | -39.59415 | 27027 ft | 243 kts | 233° |
| 2026-04-27 18:19 | 63.04441 | -39.62533 | 27029 ft | 243 kts | 233° |
| 2026-04-27 18:19 | 63.03551 | -39.65694 | 27029 ft | 243 kts | 233° |
| 2026-04-27 18:19 | 63.02661 | -39.68851 | 27031 ft | 243 kts | 232° |
| 2026-04-27 18:20 | 63.01771 | -39.72003 | 27019 ft | 242 kts | 232° |
| 2026-04-27 18:20 | 63.00879 | -39.75157 | 27019 ft | 242 kts | 232° |
| 2026-04-27 18:20 | 62.99988 | -39.78303 | 27020 ft | 242 kts | 232° |
| 2026-04-27 18:20 | 62.99097 | -39.81446 | 27020 ft | 242 kts | 232° |
| 2026-04-27 18:21 | 62.98203 | -39.84595 | 27045 ft | 243 kts | 233° |
| 2026-04-27 18:21 | 62.97318 | -39.87707 | 27022 ft | 243 kts | 234° |
| 2026-04-27 18:21 | 62.96419 | -39.90863 | 27022 ft | 244 kts | 234° |
| 2026-04-27 18:21 | 62.95520 | -39.94019 | 27022 ft | 244 kts | 234° |
| 2026-04-27 18:22 | 62.94619 | -39.97173 | 27017 ft | 244 kts | 234° |
| 2026-04-27 18:22 | 62.93718 | -40.00325 | 27017 ft | 244 kts | 234° |
| 2026-04-27 18:22 | 62.92814 | -40.03483 | 27017 ft | 244 kts | 234° |
| 2026-04-27 18:22 | 62.91911 | -40.06631 | 27017 ft | 244 kts | 234° |
| 2026-04-27 18:23 | 62.91007 | -40.09783 | 27017 ft | 244 kts | 234° |
| 2026-04-27 18:23 | 62.90117 | -40.12878 | 27017 ft | 244 kts | 234° |
| 2026-04-27 18:23 | 62.89211 | -40.16025 | 27017 ft | 244 kts | 234° |
| 2026-04-27 18:23 | 62.88303 | -40.19174 | 27017 ft | 244 kts | 234° |
| 2026-04-27 18:24 | 62.87397 | -40.22312 | 27017 ft | 244 kts | 234° |
| 2026-04-27 18:24 | 62.86489 | -40.25452 | 27017 ft | 244 kts | 233° |
| 2026-04-27 18:24 | 62.85581 | -40.28589 | 27017 ft | 244 kts | 233° |
| 2026-04-27 18:24 | 62.84671 | -40.31729 | 27018 ft | 244 kts | 233° |
| 2026-04-27 18:25 | 62.83762 | -40.34858 | 27020 ft | 244 kts | 233° |
| 2026-04-27 18:25 | 62.82862 | -40.37956 | 27020 ft | 244 kts | 233° |
| 2026-04-27 18:25 | 62.81951 | -40.41084 | 27020 ft | 244 kts | 233° |
| 2026-04-27 18:25 | 62.81039 | -40.44212 | 27020 ft | 244 kts | 233° |
| 2026-04-27 18:26 | 62.80124 | -40.47344 | 27021 ft | 245 kts | 235° |
| 2026-04-27 18:26 | 62.79212 | -40.50467 | 27019 ft | 244 kts | 236° |
| 2026-04-27 18:26 | 62.78298 | -40.53591 | 27019 ft | 243 kts | 236° |
| 2026-04-27 18:26 | 62.77386 | -40.56701 | 27019 ft | 243 kts | 236° |
| 2026-04-27 18:27 | 62.76475 | -40.59805 | 27019 ft | 243 kts | 236° |
| 2026-04-27 18:27 | 62.75564 | -40.62904 | 27018 ft | 243 kts | 236° |
| 2026-04-27 18:27 | 62.74664 | -40.65961 | 27018 ft | 243 kts | 236° |
| 2026-04-27 18:27 | 62.73752 | -40.69055 | 27018 ft | 242 kts | 235° |
| 2026-04-27 18:28 | 62.72840 | -40.72145 | 27018 ft | 242 kts | 235° |
| 2026-04-27 18:28 | 62.71927 | -40.75235 | 27018 ft | 242 kts | 235° |
| 2026-04-27 18:28 | 62.71014 | -40.78321 | 27018 ft | 242 kts | 235° |
| 2026-04-27 18:28 | 62.70100 | -40.81405 | 27017 ft | 242 kts | 235° |
| 2026-04-27 18:29 | 62.69185 | -40.84489 | 27017 ft | 242 kts | 235° |
| 2026-04-27 18:29 | 62.68270 | -40.87567 | 27018 ft | 242 kts | 235° |
| 2026-04-27 18:29 | 62.67354 | -40.90646 | 27018 ft | 242 kts | 235° |
| 2026-04-27 18:29 | 62.66451 | -40.93679 | 27023 ft | 242 kts | 235° |
| 2026-04-27 18:30 | 62.65534 | -40.96749 | 27023 ft | 242 kts | 235° |
| 2026-04-27 18:30 | 62.64617 | -40.99821 | 27023 ft | 242 kts | 235° |
| 2026-04-27 18:30 | 62.63699 | -41.02889 | 27023 ft | 242 kts | 235° |
| 2026-04-27 18:30 | 62.62781 | -41.05953 | 27023 ft | 242 kts | 235° |
| 2026-04-27 18:31 | 62.61862 | -41.09016 | 27022 ft | 242 kts | 235° |
| 2026-04-27 18:31 | 62.60943 | -41.12077 | 27022 ft | 242 kts | 235° |
| 2026-04-27 18:31 | 62.60023 | -41.15136 | 27022 ft | 242 kts | 235° |
| 2026-04-27 18:31 | 62.59103 | -41.18192 | 27031 ft | 242 kts | 235° |
| 2026-04-27 18:32 | 62.58182 | -41.21246 | 27028 ft | 242 kts | 235° |
| 2026-04-27 18:32 | 62.57272 | -41.24257 | 27028 ft | 242 kts | 235° |
| 2026-04-27 18:32 | 62.56350 | -41.27308 | 27028 ft | 242 kts | 235° |
| 2026-04-27 18:32 | 62.55426 | -41.30358 | 27028 ft | 242 kts | 235° |
| 2026-04-27 18:33 | 62.54504 | -41.33401 | 27031 ft | 242 kts | 235° |
| 2026-04-27 18:33 | 62.53581 | -41.36442 | 27031 ft | 242 kts | 235° |
| 2026-04-27 18:33 | 62.52657 | -41.39481 | 27030 ft | 242 kts | 235° |
| 2026-04-27 18:33 | 62.51730 | -41.42525 | 27039 ft | 242 kts | 235° |
| 2026-04-27 18:34 | 62.50817 | -41.45521 | 27034 ft | 242 kts | 235° |
| 2026-04-27 18:34 | 62.49890 | -41.48555 | 27034 ft | 242 kts | 235° |
| 2026-04-27 18:34 | 62.48964 | -41.51588 | 27034 ft | 242 kts | 235° |
| 2026-04-27 18:34 | 62.48036 | -41.54620 | 27033 ft | 242 kts | 235° |
| 2026-04-27 18:35 | 62.47107 | -41.57650 | 27036 ft | 242 kts | 235° |
| 2026-04-27 18:35 | 62.46180 | -41.60674 | 27036 ft | 241 kts | 235° |
| 2026-04-27 18:35 | 62.45251 | -41.63695 | 27036 ft | 241 kts | 234° |
| 2026-04-27 18:35 | 62.44322 | -41.66715 | 27040 ft | 241 kts | 236° |
| 2026-04-27 18:36 | 62.43395 | -41.69725 | 27037 ft | 241 kts | 236° |
| 2026-04-27 18:36 | 62.42478 | -41.72698 | 27038 ft | 241 kts | 236° |
| 2026-04-27 18:36 | 62.41551 | -41.75698 | 27038 ft | 240 kts | 236° |
| 2026-04-27 18:36 | 62.40625 | -41.78691 | 27037 ft | 240 kts | 236° |
| 2026-04-27 18:37 | 62.39698 | -41.81684 | 27040 ft | 240 kts | 236° |
| 2026-04-27 18:37 | 62.38770 | -41.84680 | 27040 ft | 240 kts | 236° |
| 2026-04-27 18:37 | 62.37841 | -41.87669 | 27040 ft | 240 kts | 236° |
| 2026-04-27 18:37 | 62.36914 | -41.90651 | 27048 ft | 240 kts | 236° |
| 2026-04-27 18:38 | 62.35986 | -41.93633 | 27044 ft | 240 kts | 236° |
| 2026-04-27 18:38 | 62.35069 | -41.96575 | 27044 ft | 240 kts | 236° |
| 2026-04-27 18:38 | 62.34139 | -41.99554 | 27044 ft | 240 kts | 236° |
| 2026-04-27 18:38 | 62.33207 | -42.02536 | 27044 ft | 240 kts | 236° |
| 2026-04-27 18:39 | 62.32277 | -42.05507 | 27046 ft | 240 kts | 236° |
| 2026-04-27 18:39 | 62.31346 | -42.08480 | 27047 ft | 240 kts | 236° |
| 2026-04-27 18:39 | 62.30414 | -42.11450 | 27050 ft | 240 kts | 236° |
| 2026-04-27 18:39 | 62.29479 | -42.14426 | 27050 ft | 240 kts | 236° |
| 2026-04-27 18:40 | 62.28543 | -42.17402 | 27051 ft | 240 kts | 236° |
| 2026-04-27 18:40 | 62.27619 | -42.20336 | 27054 ft | 241 kts | 236° |
| 2026-04-27 18:40 | 62.26680 | -42.23313 | 27044 ft | 241 kts | 237° |
| 2026-04-27 18:40 | 62.25738 | -42.26294 | 27044 ft | 241 kts | 237° |
| 2026-04-27 18:41 | 62.24796 | -42.29273 | 27041 ft | 242 kts | 237° |
| 2026-04-27 18:41 | 62.23849 | -42.32265 | 27042 ft | 242 kts | 237° |
| 2026-04-27 18:41 | 62.22901 | -42.35256 | 27035 ft | 243 kts | 237° |
| 2026-04-27 18:41 | 62.21951 | -42.38247 | 27036 ft | 242 kts | 237° |
| 2026-04-27 18:42 | 62.21000 | -42.41226 | 27041 ft | 242 kts | 237° |
| 2026-04-27 18:42 | 62.20371 | -42.43199 | 27041 ft | 242 kts | 237° |
| 2026-04-27 18:42 | 62.19117 | -42.47138 | 27040 ft | 242 kts | 237° |
| 2026-04-27 18:42 | 62.18169 | -42.50107 | 27040 ft | 242 kts | 237° |
| 2026-04-27 18:43 | 62.17222 | -42.53074 | 27036 ft | 241 kts | 237° |
| 2026-04-27 18:43 | 62.16272 | -42.56042 | 27036 ft | 241 kts | 237° |
| 2026-04-27 18:43 | 62.15324 | -42.59000 | 27030 ft | 241 kts | 237° |
| 2026-04-27 18:43 | 62.14374 | -42.61964 | 27030 ft | 241 kts | 237° |
| 2026-04-27 18:44 | 62.13424 | -42.64920 | 27033 ft | 241 kts | 237° |
| 2026-04-27 18:44 | 62.12473 | -42.67879 | 27033 ft | 242 kts | 237° |
| 2026-04-27 18:44 | 62.11533 | -42.70798 | 27033 ft | 242 kts | 237° |
| 2026-04-27 18:44 | 62.10581 | -42.73752 | 27033 ft | 242 kts | 237° |
| 2026-04-27 18:45 | 62.09626 | -42.76709 | 27035 ft | 242 kts | 237° |
| 2026-04-27 18:45 | 62.08671 | -42.79663 | 27035 ft | 242 kts | 237° |
| 2026-04-27 18:45 | 62.07715 | -42.82617 | 27025 ft | 241 kts | 238° |
| 2026-04-27 18:45 | 62.06763 | -42.85554 | 27025 ft | 241 kts | 238° |
| 2026-04-27 18:46 | 62.05810 | -42.88493 | 27025 ft | 241 kts | 238° |
| 2026-04-27 18:46 | 62.04857 | -42.91425 | 27024 ft | 240 kts | 238° |
| 2026-04-27 18:46 | 62.03918 | -42.94313 | 27007 ft | 241 kts | 238° |
| 2026-04-27 18:46 | 62.02949 | -42.97293 | 26779 ft | 249 kts | 238° |
| 2026-04-27 18:47 | 62.01946 | -43.00376 | 26460 ft | 257 kts | 238° |
| 2026-04-27 18:47 | 62.00914 | -43.03534 | 26111 ft | 263 kts | 238° |
| 2026-04-27 18:47 | 61.99861 | -43.06754 | 25761 ft | 267 kts | 238° |
| 2026-04-27 18:47 | 61.98795 | -43.10009 | 25406 ft | 270 kts | 238° |
| 2026-04-27 18:48 | 61.97718 | -43.13291 | 25049 ft | 271 kts | 238° |
| 2026-04-27 18:48 | 61.96643 | -43.16566 | 24693 ft | 270 kts | 238° |
| 2026-04-27 18:48 | 61.95582 | -43.19789 | 24342 ft | 269 kts | 238° |
| 2026-04-27 18:48 | 61.94509 | -43.23047 | 23987 ft | 269 kts | 238° |
| 2026-04-27 18:49 | 61.93434 | -43.26308 | 23633 ft | 269 kts | 238° |
| 2026-04-27 18:49 | 61.92362 | -43.29552 | 23283 ft | 268 kts | 239° |
| 2026-04-27 18:49 | 61.91292 | -43.32786 | 22926 ft | 267 kts | 239° |
| 2026-04-27 18:49 | 61.90227 | -43.36004 | 22566 ft | 266 kts | 239° |
| 2026-04-27 18:50 | 61.89169 | -43.39190 | 22159 ft | 260 kts | 239° |
| 2026-04-27 18:50 | 61.88144 | -43.42270 | 21825 ft | 252 kts | 240° |
| 2026-04-27 18:50 | 61.87145 | -43.45277 | 21500 ft | 247 kts | 240° |
| 2026-04-27 18:50 | 61.86171 | -43.48204 | 21196 ft | 245 kts | 240° |
| 2026-04-27 18:51 | 61.85190 | -43.51147 | 20878 ft | 243 kts | 240° |
| 2026-04-27 18:51 | 61.84216 | -43.54062 | 20559 ft | 242 kts | 240° |
| 2026-04-27 18:51 | 61.83245 | -43.56969 | 20242 ft | 242 kts | 240° |
| 2026-04-27 18:51 | 61.82274 | -43.59870 | 19923 ft | 242 kts | 240° |
| 2026-04-27 18:52 | 61.81304 | -43.62765 | 19606 ft | 241 kts | 240° |
| 2026-04-27 18:52 | 61.80331 | -43.65663 | 19290 ft | 241 kts | 240° |
| 2026-04-27 18:52 | 61.79372 | -43.68519 | 18974 ft | 242 kts | 240° |
| 2026-04-27 18:53 | 61.77418 | -43.74323 | 18392 ft | 242 kts | 241° |
| 2026-04-27 18:53 | 61.76439 | -43.77226 | 18068 ft | 243 kts | 241° |
| 2026-04-27 18:53 | 61.75459 | -43.80130 | 17755 ft | 243 kts | 241° |
| 2026-04-27 18:53 | 61.74478 | -43.83031 | 17434 ft | 243 kts | 241° |
| 2026-04-27 18:54 | 61.73495 | -43.85932 | 17087 ft | 243 kts | 241° |
| 2026-04-27 18:54 | 61.72512 | -43.88832 | 16757 ft | 242 kts | 241° |
| 2026-04-27 18:54 | 61.71548 | -43.91670 | 16442 ft | 241 kts | 241° |
| 2026-04-27 18:54 | 61.70577 | -43.94523 | 16183 ft | 238 kts | 244° |
| 2026-04-27 18:55 | 61.69612 | -43.97361 | 15885 ft | 238 kts | 244° |
| 2026-04-27 18:55 | 61.68649 | -44.00192 | 15573 ft | 238 kts | 244° |
| 2026-04-27 18:55 | 61.67685 | -44.03025 | 15261 ft | 238 kts | 246° |
| 2026-04-27 18:55 | 61.66720 | -44.05850 | 14947 ft | 237 kts | 245° |
| 2026-04-27 18:56 | 61.65759 | -44.08655 | 14634 ft | 236 kts | 243° |
| 2026-04-27 18:56 | 61.64802 | -44.11447 | 14324 ft | 235 kts | 246° |
| 2026-04-27 18:56 | 61.63865 | -44.14185 | 14016 ft | 233 kts | 246° |
| 2026-04-27 18:56 | 61.62920 | -44.16935 | 13793 ft | 231 kts | 246° |
| 2026-04-27 18:57 | 61.61981 | -44.19672 | 13490 ft | 230 kts | 246° |
| 2026-04-27 18:57 | 61.61043 | -44.22404 | 13180 ft | 230 kts | 245° |
| 2026-04-27 18:57 | 61.60306 | -44.25252 | 12860 ft | 214 kts | 263° |
| 2026-04-27 18:57 | 61.59892 | -44.28222 | 12578 ft | 210 kts | 266° |
| 2026-04-27 18:58 | 61.59523 | -44.31168 | 12424 ft | 205 kts | 268° |
| 2026-04-27 18:58 | 61.59262 | -44.33041 | 12423 ft | 199 kts | 267° |
| 2026-04-27 18:58 | 61.58724 | -44.36675 | 12393 ft | 192 kts | 264° |
| 2026-04-27 18:58 | 61.58380 | -44.39340 | 12254 ft | 193 kts | 264° |
| 2026-04-27 18:59 | 61.58076 | -44.42122 | 12061 ft | 199 kts | 266° |
| 2026-04-27 18:59 | 61.57806 | -44.44990 | 11807 ft | 201 kts | 268° |
| 2026-04-27 18:59 | 61.57577 | -44.47894 | 11580 ft | 202 kts | 268° |
| 2026-04-27 18:59 | 61.57312 | -44.50796 | 11349 ft | 205 kts | 263° |
| 2026-04-27 19:00 | 61.56862 | -44.53651 | 11116 ft | 207 kts | 258° |
| 2026-04-27 19:00 | 61.56361 | -44.56485 | 10895 ft | 207 kts | 257° |
| 2026-04-27 19:00 | 61.55854 | -44.59314 | 10633 ft | 207 kts | 257° |
| 2026-04-27 19:00 | 61.55348 | -44.62106 | 10424 ft | 207 kts | 257° |
| 2026-04-27 19:01 | 61.54829 | -44.64924 | 10187 ft | 208 kts | 253° |
| 2026-04-27 19:01 | 61.54050 | -44.67546 | 9953 ft | 214 kts | 243° |
| 2026-04-27 19:01 | 61.53183 | -44.70096 | 9752 ft | 215 kts | 242° |
| 2026-04-27 19:01 | 61.52315 | -44.72641 | 9518 ft | 215 kts | 242° |
| 2026-04-27 19:02 | 61.51458 | -44.75188 | 9250 ft | 212 kts | 245° |
| 2026-04-27 19:02 | 61.50772 | -44.77876 | 9040 ft | 208 kts | 251° |
| 2026-04-27 19:02 | 61.50149 | -44.80570 | 8816 ft | 208 kts | 249° |
| 2026-04-27 19:02 | 61.49361 | -44.83140 | 8547 ft | 213 kts | 237° |
| 2026-04-27 19:03 | 61.48288 | -44.85317 | 8315 ft | 215 kts | 225° |
| 2026-04-27 19:03 | 61.47133 | -44.87270 | 8107 ft | 212 kts | 225° |
| 2026-04-27 19:03 | 61.46007 | -44.89240 | 7892 ft | 210 kts | 226° |
| 2026-04-27 19:03 | 61.45280 | -44.90553 | 7773 ft | 208 kts | 226° |
| 2026-04-27 19:04 | 61.43824 | -44.93192 | 7496 ft | 206 kts | 225° |
| 2026-04-27 19:04 | 61.42745 | -44.95131 | 7324 ft | 204 kts | 225° |
| 2026-04-27 19:04 | 61.41666 | -44.97064 | 7057 ft | 205 kts | 224° |
| 2026-04-27 19:04 | 61.40599 | -44.98984 | 6812 ft | 199 kts | 224° |
| 2026-04-27 19:05 | 61.39576 | -45.00815 | 6597 ft | 194 kts | 223° |
| 2026-04-27 19:05 | 61.38565 | -45.02627 | 6390 ft | 190 kts | 223° |
| 2026-04-27 19:05 | 61.37571 | -45.04407 | 6178 ft | 187 kts | 223° |
| 2026-04-27 19:06 | 61.34654 | -45.09614 | 5528 ft | 186 kts | 223° |
| 2026-04-27 19:06 | 61.33666 | -45.11378 | 5308 ft | 188 kts | 222° |
| 2026-04-27 19:06 | 61.32685 | -45.13125 | 5213 ft | 183 kts | 222° |
| 2026-04-27 19:07 | 61.31742 | -45.14801 | 5120 ft | 181 kts | 222° |
| 2026-04-27 19:07 | 61.30784 | -45.16507 | 4848 ft | 180 kts | 222° |
| 2026-04-27 19:07 | 61.29843 | -45.18182 | 4580 ft | 177 kts | 222° |
| 2026-04-27 19:07 | 61.28906 | -45.19846 | 4313 ft | 177 kts | 221° |
| 2026-04-27 19:08 | 61.27986 | -45.21469 | 4115 ft | 171 kts | 220° |
| 2026-04-27 19:08 | 61.27095 | -45.23051 | 3958 ft | 165 kts | 221° |
| 2026-04-27 19:08 | 61.26241 | -45.24611 | 3749 ft | 162 kts | 221° |
| 2026-04-27 19:08 | 61.25398 | -45.26145 | 3510 ft | 161 kts | 221° |
| 2026-04-27 19:09 | 61.24564 | -45.27679 | 3247 ft | 160 kts | 222° |
| 2026-04-27 19:09 | 61.23749 | -45.29167 | 3033 ft | 157 kts | 221° |
| 2026-04-27 19:09 | 61.22926 | -45.30659 | 2784 ft | 157 kts | 220° |
| 2026-04-27 19:09 | 61.22097 | -45.32082 | 2481 ft | 150 kts | 219° |
| 2026-04-27 19:10 | 61.21309 | -45.33400 | 2182 ft | 142 kts | 219° |
| 2026-04-27 19:10 | 61.20544 | -45.34675 | 1899 ft | 140 kts | 218° |
| 2026-04-27 19:10 | 61.19804 | -45.35929 | 1582 ft | 135 kts | 222° |
| 2026-04-27 19:10 | 61.19349 | -45.36767 | 1441 ft | 125 kts | 222° |
| 2026-04-27 19:11 | 61.18525 | -45.38195 | 983 ft | 110 kts | 222° |
| 2026-04-27 19:11 | 61.17960 | -45.39232 | 641 ft | 101 kts | 221° |
| 2026-04-27 19:11 | 61.17493 | -45.40059 | 441 ft | 84 kts | 220° |
| 2026-04-27 19:11 | 61.17043 | -45.40855 | 244 ft | 82 kts | 219° |
| 2026-04-27 19:12 | 61.16644 | -45.41558 | 75 ft | 67 kts | 220° |
| 2026-04-27 19:12 | 61.16367 | -45.42043 | 65 ft | 26 kts | 217° |
| 2026-04-27 19:12 | 61.16334 | -45.42104 | 64 ft | 2 kts | 184° |
| 2026-04-27 19:12 | 61.16288 | -45.42016 | 65 ft | 11 kts | 131° |
| 2026-04-27 19:13 | 61.16256 | -45.41926 | 66 ft | 8 kts | 102° |
| 2026-04-27 19:13 | 61.16221 | -45.41879 | 62 ft | 5 kts | 199° |
| 2026-04-27 19:13 | 61.16187 | -45.41923 | 66 ft | 6 kts | 222° |
| 2026-04-27 19:13 | 61.16183 | -45.41946 | 62 ft | 1 kts | 339° |
| 2026-04-27 19:14 | 61.16199 | -45.41920 | 66 ft | 0 kts | 39° |